Time;durP1;ratioP1;P1;durP2;ratioP2;P2;SDS_P1;SDS_P2;PMS_P1;PMS_P2;Temp;Humidity;BMP_temperature;BMP_pressure;BME280_temperature;BME280_humidity;BME280_pressure;Samples;Min_cycle;Max_cycle;Signal;HPM_P1;HPM_P2
2023/10/08 00:01:19;;;;;;;10.75;3.47;;;14.80;99.90;;;;;;4992088;28;20207;-76
2023/10/08 00:03:48;;;;;;;9.38;3.70;;;14.60;99.90;;;;;;4974645;28;20175;-75
2023/10/08 00:06:15;;;;;;;4.28;2.60;;;14.70;99.90;;;;;;4991927;28;20266;-75
2023/10/08 00:08:41;;;;;;;7.10;2.97;;;14.70;99.90;;;;;;4989968;28;20669;-76
2023/10/08 00:11:09;;;;;;;8.32;3.10;;;14.70;99.90;;;;;;4991809;28;20182;-75
2023/10/08 00:13:39;;;;;;;7.80;3.03;;;14.90;99.90;;;;;;4991764;28;20187;-75
2023/10/08 00:16:21;;;;;;;13.65;3.08;;;14.70;99.90;;;;;;4991844;28;20191;-75
2023/10/08 00:18:50;;;;;;;6.47;2.72;;;14.40;99.90;;;;;;4991474;28;20170;-76
2023/10/08 00:21:19;;;;;;;10.85;3.08;;;14.60;99.90;;;;;;4990697;28;20183;-75
2023/10/08 00:23:52;;;;;;;8.98;2.75;;;14.60;99.90;;;;;;4991752;28;20633;-76
2023/10/08 00:26:27;;;;;;;7.90;3.28;;;14.60;99.90;;;;;;4991713;28;20171;-75
2023/10/08 00:28:56;;;;;;;5.97;2.88;;;14.50;99.90;;;;;;4975251;28;20214;-76
2023/10/08 00:31:25;;;;;;;10.65;3.45;;;14.60;99.90;;;;;;4974159;28;20533;-76
2023/10/08 00:33:52;;;;;;;12.85;3.78;;;14.50;99.90;;;;;;4974073;28;20175;-76
2023/10/08 00:36:19;;;;;;;6.72;3.05;;;;;;;;;;4991647;28;20167;-76
2023/10/08 00:38:50;;;;;;;7.65;3.58;;;14.10;99.90;;;;;;4991386;28;20262;-76
2023/10/08 00:41:21;;;;;;;10.05;4.00;;;14.40;99.90;;;;;;4991541;28;20163;-76
2023/10/08 00:43:51;;;;;;;9.27;3.17;;;14.70;99.90;;;;;;4991501;28;20179;-76
2023/10/08 00:48:54;;;;;;;7.60;3.15;;;14.50;99.90;;;;;;4992469;28;20203;-76
2023/10/08 00:53:49;;;;;;;10.15;3.95;;;14.50;99.90;;;;;;4995436;28;20171;-76
2023/10/08 00:56:19;;;;;;;7.63;3.50;;;14.20;99.90;;;;;;4993134;28;20185;-76
2023/10/08 00:58:48;;;;;;;7.70;3.33;;;;;;;;;;4994795;28;20159;-76
2023/10/08 01:01:16;;;;;;;8.43;3.55;;;14.40;99.90;;;;;;4995301;28;20183;-76
2023/10/08 01:03:44;;;;;;;9.40;3.50;;;14.20;99.90;;;;;;4995169;28;20290;-76
2023/10/08 01:06:12;;;;;;;8.80;3.80;;;14.20;99.90;;;;;;4995037;28;20221;-76
2023/10/08 01:08:45;;;;;;;12.93;4.30;;;14.30;99.90;;;;;;4994925;28;20211;-76
2023/10/08 01:14:08;;;;;;;10.57;4.30;;;;;;;;;;4994676;28;20513;-77
2023/10/08 01:16:34;;;;;;;10.55;4.40;;;14.30;99.90;;;;;;4994826;28;20541;-76
2023/10/08 01:19:00;;;;;;;7.03;3.72;;;;;;;;;;4994525;28;20175;-76
2023/10/08 01:21:34;;;;;;;6.55;3.75;;;14.30;99.90;;;;;;4994769;28;20172;-76
2023/10/08 01:24:02;;;;;;;10.10;4.15;;;14.40;99.90;;;;;;4994707;28;20168;-76
2023/10/08 01:26:31;;;;;;;10.90;3.63;;;14.30;99.90;;;;;;4994685;28;20186;-76
2023/10/08 01:28:57;;;;;;;9.13;4.00;;;14.40;99.90;;;;;;4994520;28;20747;-76
2023/10/08 01:31:23;;;;;;;7.25;3.55;;;14.30;99.90;;;;;;4994712;28;20179;-76
2023/10/08 01:33:56;;;;;;;14.43;4.10;;;14.30;99.90;;;;;;4994693;28;20646;-75
2023/10/08 01:36:23;;;;;;;6.63;3.17;;;14.30;99.90;;;;;;4994555;28;20182;-75
2023/10/08 01:38:49;;;;;;;12.50;4.03;;;14.60;99.90;;;;;;4993305;28;20179;-75
2023/10/08 01:41:23;;;;;;;9.80;3.70;;;14.20;99.90;;;;;;4976663;28;20186;-75
2023/10/08 01:43:52;;;;;;;10.00;4.07;;;14.20;99.90;;;;;;4978181;28;20178;-75
2023/10/08 01:46:21;;;;;;;14.52;4.55;;;14.20;99.90;;;;;;4993756;28;20174;-76
2023/10/08 01:48:53;;;;;;;11.52;4.85;;;14.40;99.90;;;;;;4994124;28;20243;-76
2023/10/08 01:51:37;;;;;;;9.00;4.40;;;14.30;99.90;;;;;;4994127;28;20210;-76
2023/10/08 01:54:04;;;;;;;7.65;4.35;;;14.30;99.90;;;;;;4976472;28;20183;-75
2023/10/08 01:56:29;;;;;;;10.75;4.25;;;14.30;99.90;;;;;;4994102;28;20186;-76
2023/10/08 01:58:55;;;;;;;10.02;4.13;;;14.40;99.90;;;;;;4994154;28;20167;-75
2023/10/08 02:01:21;;;;;;;9.57;4.20;;;14.30;99.90;;;;;;4992969;28;20650;-75
2023/10/08 02:03:48;;;;;;;10.80;4.20;;;14.10;99.90;;;;;;4994331;28;20266;-76
2023/10/08 02:06:13;;;;;;;7.95;4.00;;;14.10;99.90;;;;;;4977393;28;20237;-75
2023/10/08 02:08:39;;;;;;;6.72;3.83;;;14.20;99.90;;;;;;4994187;28;20604;-76
2023/10/08 02:11:05;;;;;;;10.05;3.83;;;14.10;99.90;;;;;;4994044;28;20180;-76
2023/10/08 02:13:31;;;;;;;9.80;4.07;;;14.10;99.90;;;;;;4993967;28;20657;-75
2023/10/08 02:15:58;;;;;;;13.63;4.03;;;;;;;;;;4976964;28;20184;-75
2023/10/08 02:18:24;;;;;;;9.65;3.78;;;14.30;99.90;;;;;;4994529;28;20186;-74
2023/10/08 02:20:50;;;;;;;14.93;4.65;;;14.10;99.90;;;;;;4994052;28;20676;-75
2023/10/08 02:23:17;;;;;;;9.18;4.07;;;;;;;;;;4993905;28;20171;-74
2023/10/08 02:25:44;;;;;;;11.32;4.07;;;11.10;99.90;;;;;;4994084;28;20175;-75
2023/10/08 02:28:15;;;;;;;12.30;4.53;;;14.20;99.90;;;;;;4994153;28;20179;-75
2023/10/08 02:30:41;;;;;;;9.23;3.78;;;14.20;99.90;;;;;;4993785;28;20709;-75
2023/10/08 02:33:14;;;;;;;8.60;4.10;;;14.10;99.90;;;;;;4976133;28;20210;-75
2023/10/08 02:35:42;;;;;;;7.40;3.78;;;14.20;99.90;;;;;;4993983;28;20187;-75
2023/10/08 02:38:09;;;;;;;9.40;3.78;;;14.20;99.90;;;;;;4976308;28;20262;-74
2023/10/08 02:40:37;;;;;;;8.75;3.60;;;14.20;99.90;;;;;;4993962;28;20194;-74
2023/10/08 02:43:07;;;;;;;10.50;4.40;;;14.30;99.90;;;;;;4993585;28;20545;-74
2023/10/08 02:45:38;;;;;;;7.68;4.00;;;14.20;99.90;;;;;;4976187;28;20175;-75
2023/10/08 02:48:11;;;;;;;10.68;4.18;;;14.20;99.90;;;;;;4993441;28;20183;-75
2023/10/08 02:50:41;;;;;;;9.88;3.90;;;14.30;99.90;;;;;;4993198;28;20271;-74
2023/10/08 02:53:18;;;;;;;11.70;3.97;;;14.10;99.90;;;;;;4993307;28;20171;-76
2023/10/08 02:55:46;;;;;;;9.13;4.03;;;14.20;99.90;;;;;;4993312;28;20179;-75
2023/10/08 02:58:15;;;;;;;7.97;4.13;;;14.20;99.90;;;;;;4993391;28;20266;-74
2023/10/08 03:00:42;;;;;;;9.52;4.13;;;14.20;99.90;;;;;;4993016;28;20186;-75
2023/10/08 03:03:28;;;;;;;7.50;3.47;;;14.50;99.90;;;;;;4992529;28;20171;-75
2023/10/08 03:05:56;;;;;;;12.40;4.07;;;14.20;99.90;;;;;;4992751;28;20218;-75
2023/10/08 03:08:23;;;;;;;12.15;4.18;;;14.20;99.90;;;;;;4975585;28;20199;-74
2023/10/08 03:10:55;;;;;;;9.13;4.15;;;14.10;99.90;;;;;;4992981;28;20187;-74
2023/10/08 03:13:21;;;;;;;10.63;5.13;;;14.20;99.90;;;;;;4992382;28;20167;-74
2023/10/08 03:15:57;;;;;;;10.05;4.53;;;14.20;99.90;;;;;;4992317;28;20187;-74
2023/10/08 03:18:24;;;;;;;11.77;4.35;;;14.30;99.90;;;;;;4992515;28;20174;-75
2023/10/08 03:20:50;;;;;;;9.88;4.28;;;13.90;99.90;;;;;;4992248;28;20238;-75
2023/10/08 03:23:23;;;;;;;8.68;4.55;;;14.20;99.90;;;;;;4992759;28;20667;-75
2023/10/08 03:26:01;;;;;;;12.25;4.30;;;14.10;99.90;;;;;;4990408;28;20183;-75
2023/10/08 03:28:34;;;;;;;10.15;4.50;;;14.10;99.90;;;;;;4985672;28;20219;-75
2023/10/08 03:31:04;;;;;;;11.98;4.38;;;14.30;99.90;;;;;;4991894;28;20175;-75
2023/10/08 03:33:37;;;;;;;9.93;4.55;;;14.00;99.90;;;;;;4992114;28;20164;-75
2023/10/08 03:38:57;;;;;;;10.30;4.72;;;;;;;;;;4954986;28;20654;-75
2023/10/08 03:41:30;;;;;;;9.40;4.90;;;14.20;99.90;;;;;;4974511;28;20171;-75
2023/10/08 03:44:05;;;;;;;13.38;5.03;;;14.10;99.90;;;;;;4992164;28;20310;-75
2023/10/08 03:46:39;;;;;;;12.25;5.03;;;14.10;99.90;;;;;;4991775;28;20259;-75
2023/10/08 03:49:14;;;;;;;9.15;4.57;;;14.00;99.90;;;;;;4991772;28;20432;-74
2023/10/08 03:51:44;;;;;;;10.10;4.05;;;14.10;99.90;;;;;;4974785;28;20686;-75
2023/10/08 03:56:37;;;;;;;9.38;4.05;;;;;;;;;;4991925;28;20217;-75
2023/10/08 03:59:20;;;;;;;7.95;3.72;;;14.10;99.90;;;;;;4992080;28;20175;-75
2023/10/08 04:01:48;;;;;;;10.70;4.07;;;14.00;99.90;;;;;;4991673;28;20183;-75
2023/10/08 04:04:14;;;;;;;8.23;4.35;;;13.90;99.90;;;;;;4992056;28;20219;-75
2023/10/08 04:06:48;;;;;;;12.30;4.57;;;13.70;99.90;;;;;;4991760;28;20191;-75
2023/10/08 04:11:51;;;;;;;6.65;4.15;;;13.90;99.90;;;;;;4991645;28;20245;-75
2023/10/08 04:14:27;;;;;;;10.25;4.80;;;13.80;99.90;;;;;;4991180;28;20183;-75
2023/10/08 04:16:53;;;;;;;9.48;4.65;;;13.60;99.90;;;;;;4991710;28;20174;-75
2023/10/08 04:19:21;;;;;;;8.88;4.05;;;13.80;99.90;;;;;;4974386;28;20189;-75
2023/10/08 04:21:53;;;;;;;8.27;4.47;;;13.70;99.90;;;;;;4991537;28;20175;-76
2023/10/08 04:24:34;;;;;;;10.18;4.45;;;13.60;99.90;;;;;;4991038;28;20193;-76
2023/10/08 04:27:09;;;;;;;9.90;4.40;;;13.70;99.90;;;;;;4991762;28;20228;-75
2023/10/08 04:29:37;;;;;;;9.43;4.80;;;13.60;99.90;;;;;;4991734;28;20317;-75
2023/10/08 04:32:12;;;;;;;8.05;4.75;;;13.50;99.90;;;;;;4991749;28;20538;-75
2023/10/08 04:34:38;;;;;;;8.82;4.60;;;13.30;99.90;;;;;;4991589;28;20629;-75
2023/10/08 04:37:12;;;;;;;7.85;4.72;;;13.40;99.90;;;;;;4991435;28;20166;-75
2023/10/08 04:39:40;;;;;;;8.98;4.55;;;;;;;;;;4991580;28;20183;-75
2023/10/08 04:42:09;;;;;;;15.30;4.65;;;13.30;99.90;;;;;;4991529;28;20168;-75
2023/10/08 04:44:38;;;;;;;8.43;4.60;;;14.10;99.90;;;;;;4974718;28;20292;-75
2023/10/08 04:47:04;;;;;;;11.90;4.30;;;13.40;99.90;;;;;;4991446;28;20542;-76
2023/10/08 04:49:32;;;;;;;12.25;4.53;;;13.20;99.90;;;;;;4991347;28;20718;-75
2023/10/08 04:52:05;;;;;;;10.38;4.00;;;13.30;99.90;;;;;;4991653;28;20302;-75
2023/10/08 04:54:30;;;;;;;11.30;4.70;;;13.50;99.90;;;;;;4973906;28;20669;-75
2023/10/08 04:57:00;;;;;;;9.60;4.40;;;13.30;99.90;;;;;;4991443;28;20168;-75
2023/10/08 04:59:34;;;;;;;7.15;4.15;;;13.30;99.90;;;;;;4973734;28;20183;-76
2023/10/08 05:02:18;;;;;;;8.60;3.72;;;13.20;99.90;;;;;;4991380;28;20167;-75
2023/10/08 05:15:37;;;;;;;18.10;4.78;;;13.10;99.90;;;;;;4991183;28;20221;-75
2023/10/08 05:18:14;;;;;;;11.13;4.47;;;;;;;;;;4973998;28;20186;-77
2023/10/08 05:20:58;;;;;;;8.90;4.28;;;13.20;99.90;;;;;;4990510;28;20178;-76
2023/10/08 05:25:58;;;;;;;11.10;4.55;;;13.10;99.90;;;;;;4990062;28;20271;-75
2023/10/08 05:28:24;;;;;;;8.38;4.18;;;13.10;99.90;;;;;;4990656;28;20199;-76
2023/10/08 05:31:05;;;;;;;11.45;4.43;;;13.30;99.90;;;;;;4990733;28;20188;-75
2023/10/08 05:33:59;;;;;;;10.77;4.63;;;13.00;99.90;;;;;;4991249;28;20174;-75
2023/10/08 05:36:27;;;;;;;9.38;4.35;;;13.20;99.90;;;;;;4994003;28;20584;-74
2023/10/08 05:39:19;;;;;;;7.47;3.90;;;13.40;99.90;;;;;;4994632;28;20187;-76
2023/10/08 05:53:02;;;;;;;7.78;3.58;;;13.00;99.90;;;;;;4984253;28;20270;-75
2023/10/08 05:55:35;;;;;;;9.67;4.30;;;12.80;99.90;;;;;;4994378;28;20187;-78
2023/10/08 05:58:13;;;;;;;9.35;3.67;;;13.20;99.90;;;;;;4974963;28;20204;-75
2023/10/08 06:01:07;;;;;;;8.02;3.67;;;12.70;99.90;;;;;;4974603;28;20323;-75
2023/10/08 06:03:59;;;;;;;10.23;3.60;;;;;;;;;;4974764;28;20172;-76
2023/10/08 06:06:37;;;;;;;10.90;4.40;;;12.90;99.90;;;;;;4974643;28;20192;-76
2023/10/08 06:09:21;;;;;;;9.90;4.00;;;12.90;99.90;;;;;;4974590;28;20223;-75
2023/10/08 06:12:06;;;;;;;8.52;3.95;;;12.70;99.90;;;;;;4974848;28;20187;-76
2023/10/08 06:14:52;;;;;;;6.18;3.85;;;;;;;;;;4974702;28;20176;-75
2023/10/08 06:18:04;;;;;;;10.85;4.18;;;12.90;99.90;;;;;;4974405;28;20319;-75
2023/10/08 06:20:09;;;;;;;11.03;3.80;;;;;;;;;;4963929;28;20231;-75
2023/10/08 06:22:35;;;;;;;9.65;3.90;;;;;;;;;;4974393;28;20258;-75
2023/10/08 06:25:16;;;;;;;7.88;3.63;;;;;;;;;;4986324;28;20179;-76
2023/10/08 06:27:44;;;;;;;7.20;2.90;;;;;;;;;;4993647;28;20171;-75
2023/10/08 06:30:16;;;;;;;8.00;2.78;;;12.60;99.90;;;;;;4993637;28;20313;-75
2023/10/08 06:32:44;;;;;;;8.15;3.13;;;12.90;99.90;;;;;;4976070;28;20186;-74
2023/10/08 06:35:17;;;;;;;7.03;3.30;;;12.60;99.90;;;;;;4993602;28;20187;-76
2023/10/08 06:37:43;;;;;;;8.83;3.47;;;;;;;;;;4993437;28;20258;-75
2023/10/08 06:40:40;;;;;;;9.10;3.80;;;12.50;99.90;;;;;;4993150;28;20187;-75
2023/10/08 06:42:57;;;;;;;7.90;3.27;;;12.50;99.90;;;;;;4993247;28;20645;-75
2023/10/08 06:45:23;;;;;;;8.13;3.60;;;12.50;99.90;;;;;;4975969;28;20178;-75
2023/10/08 06:47:49;;;;;;;8.90;3.13;;;12.40;99.90;;;;;;4992515;28;20175;-75
2023/10/08 06:50:16;;;;;;;7.30;3.37;;;12.50;99.90;;;;;;4992980;28;20623;-75
2023/10/08 06:52:43;;;;;;;8.03;3.30;;;12.50;99.90;;;;;;4975784;28;20596;-75
2023/10/08 06:55:13;;;;;;;6.43;3.25;;;;;;;;;;4993201;28;20172;-75
2023/10/08 06:57:38;;;;;;;7.45;3.22;;;12.60;99.90;;;;;;4992997;28;20172;-75
2023/10/08 07:00:12;;;;;;;8.40;3.63;;;12.50;99.90;;;;;;4992934;28;20644;-75
2023/10/08 07:02:39;;;;;;;6.00;3.43;;;12.70;99.90;;;;;;4992876;28;20180;-75
2023/10/08 07:05:09;;;;;;;6.60;3.67;;;12.70;99.90;;;;;;4992581;28;20247;-77
2023/10/08 07:07:39;;;;;;;10.47;3.43;;;12.90;99.90;;;;;;4992858;28;20167;-74
2023/10/08 07:10:10;;;;;;;8.23;3.90;;;12.90;99.90;;;;;;4993035;28;20688;-75
2023/10/08 07:12:36;;;;;;;8.95;3.50;;;12.80;99.90;;;;;;4992970;28;20665;-75
2023/10/08 07:15:03;;;;;;;7.03;3.53;;;13.00;99.90;;;;;;4993010;28;20203;-75
2023/10/08 07:17:40;;;;;;;8.52;3.58;;;12.90;99.90;;;;;;4992794;28;20206;-75
2023/10/08 07:20:13;;;;;;;7.13;3.23;;;13.10;99.90;;;;;;4992712;28;20178;-77
2023/10/08 07:22:43;;;;;;;8.43;3.47;;;13.10;99.90;;;;;;4992160;28;20182;-77
2023/10/08 07:25:09;;;;;;;7.93;3.35;;;13.10;99.90;;;;;;4992010;28;20171;-76
2023/10/08 07:27:37;;;;;;;7.90;3.67;;;13.00;99.90;;;;;;4991264;28;20178;-78
2023/10/08 07:30:10;;;;;;;7.65;3.40;;;13.30;99.90;;;;;;4991247;28;20211;-75
2023/10/08 07:32:38;;;;;;;7.32;3.53;;;13.30;99.90;;;;;;4992306;28;20167;-74
2023/10/08 07:35:23;;;;;;;7.60;3.38;;;13.30;99.90;;;;;;4992360;28;20266;-74
2023/10/08 07:37:49;;;;;;;12.57;3.85;;;13.40;99.90;;;;;;4992265;28;20163;-75
2023/10/08 07:40:15;;;;;;;7.37;3.23;;;13.50;99.90;;;;;;4991678;28;20173;-74
2023/10/08 07:42:40;;;;;;;5.88;3.60;;;13.40;99.90;;;;;;4991770;28;20245;-74
2023/10/08 07:45:06;;;;;;;9.40;3.40;;;13.50;99.90;;;;;;4992371;28;20216;-74
2023/10/08 07:47:32;;;;;;;10.27;3.30;;;13.70;99.90;;;;;;4992039;28;20186;-74
2023/10/08 07:49:58;;;;;;;5.28;3.15;;;13.40;99.90;;;;;;4991861;28;20219;-74
2023/10/08 07:52:24;;;;;;;6.65;2.97;;;13.60;99.90;;;;;;4975072;28;20277;-74
2023/10/08 07:54:50;;;;;;;6.70;3.35;;;13.90;99.90;;;;;;4991830;28;20234;-74
2023/10/08 07:57:20;;;;;;;6.38;3.33;;;13.70;99.90;;;;;;4991294;28;20171;-74
2023/10/08 07:59:46;;;;;;;7.55;3.50;;;14.10;99.90;;;;;;4992040;28;20186;-74
2023/10/08 08:02:13;;;;;;;6.95;3.55;;;14.10;99.90;;;;;;4989626;28;20176;-75
2023/10/08 08:04:40;;;;;;;7.28;3.00;;;14.20;99.90;;;;;;4991494;28;20219;-74
2023/10/08 08:07:07;;;;;;;6.32;3.20;;;14.40;99.90;;;;;;4973886;28;20191;-75
2023/10/08 08:09:39;;;;;;;9.07;3.17;;;;;;;;;;4991645;28;20297;-74
2023/10/08 08:12:11;;;;;;;8.40;3.40;;;14.50;99.90;;;;;;4992477;28;20218;-75
2023/10/08 08:14:40;;;;;;;8.00;3.35;;;14.70;99.90;;;;;;4991646;28;20179;-75
2023/10/08 08:17:13;;;;;;;5.47;2.80;;;16.70;99.90;;;;;;4991730;28;20614;-75
2023/10/08 08:19:52;;;;;;;8.73;3.13;;;16.40;99.90;;;;;;4991594;28;20202;-75
2023/10/08 08:22:21;;;;;;;8.18;3.08;;;16.00;99.90;;;;;;4991528;28;20211;-74
2023/10/08 08:25:15;;;;;;;7.72;3.65;;;15.60;99.90;;;;;;4991867;28;20194;-75
2023/10/08 08:27:43;;;;;;;5.57;3.42;;;15.90;99.90;;;;;;4971917;28;20215;-75
2023/10/08 08:30:10;;;;;;;11.00;3.88;;;15.90;99.90;;;;;;4972112;28;20214;-75
2023/10/08 08:32:39;;;;;;;12.55;3.95;;;16.00;99.90;;;;;;4973579;28;20199;-75
2023/10/08 08:35:07;;;;;;;20.50;4.47;;;16.00;99.90;;;;;;4972224;28;20184;-75
2023/10/08 08:37:35;;;;;;;10.68;4.38;;;16.10;99.90;;;;;;4972248;28;20251;-75
2023/10/08 08:40:07;;;;;;;11.00;4.13;;;16.00;99.90;;;;;;4988579;28;20560;-74
2023/10/08 08:42:35;;;;;;;8.68;4.07;;;16.10;99.90;;;;;;4991508;28;20214;-75
2023/10/08 08:45:08;;;;;;;9.38;4.53;;;16.30;99.90;;;;;;4991476;28;20203;-75
2023/10/08 08:47:35;;;;;;;9.65;3.78;;;16.30;99.90;;;;;;4991155;28;20199;-75
2023/10/08 08:50:08;;;;;;;10.45;3.78;;;16.60;99.90;;;;;;4991550;28;20242;-74
2023/10/08 08:52:38;;;;;;;8.68;3.92;;;16.50;99.90;;;;;;4990704;28;20171;-74
2023/10/08 08:55:17;;;;;;;8.55;3.83;;;16.50;99.90;;;;;;4991276;28;20183;-74
2023/10/08 08:57:44;;;;;;;9.93;4.00;;;16.60;99.90;;;;;;4990758;28;20185;-74
2023/10/08 09:00:14;;;;;;;7.70;3.78;;;16.90;99.90;;;;;;4991069;28;20171;-75
2023/10/08 09:02:44;;;;;;;8.20;3.95;;;17.10;99.90;;;;;;4991300;28;20211;-77
2023/10/08 09:05:23;;;;;;;9.55;4.20;;;17.00;99.90;;;;;;4973825;28;20219;-76
2023/10/08 09:08:07;;;;;;;9.60;3.90;;;17.30;99.90;;;;;;4990774;28;20634;-74
2023/10/08 09:10:51;;;;;;;8.13;3.70;;;17.40;99.90;;;;;;4993385;28;20306;-76
2023/10/08 09:13:21;;;;;;;10.55;4.10;;;17.60;99.90;;;;;;4988816;28;20172;-75
2023/10/08 09:15:47;;;;;;;9.50;4.20;;;17.60;99.90;;;;;;4990008;28;20179;-75
2023/10/08 09:18:14;;;;;;;10.35;4.80;;;17.70;99.90;;;;;;4994805;28;20240;-76
2023/10/08 09:20:43;;;;;;;13.05;5.68;;;17.90;99.90;;;;;;4994604;28;20206;-75
2023/10/08 09:23:13;;;;;;;22.17;11.05;;;17.70;99.90;;;;;;4994959;28;20164;-76
2023/10/08 09:25:44;;;;;;;19.70;8.48;;;17.60;99.90;;;;;;4994929;28;20222;-75
2023/10/08 09:28:12;;;;;;;11.05;6.45;;;17.70;99.90;;;;;;4994878;28;20167;-75
2023/10/08 09:30:39;;;;;;;15.07;5.90;;;20.30;99.90;;;;;;4994309;28;20203;-75
2023/10/08 09:33:10;;;;;;;13.60;6.28;;;18.20;99.90;;;;;;4994864;28;20171;-75
2023/10/08 09:35:36;;;;;;;13.65;6.25;;;18.60;99.90;;;;;;4994852;28;20183;-76
2023/10/08 09:38:15;;;;;;;10.43;5.28;;;18.50;99.90;;;;;;4994527;28;20175;-77
2023/10/08 09:40:41;;;;;;;15.27;6.20;;;18.60;99.90;;;;;;4994650;28;20179;-76
2023/10/08 09:43:10;;;;;;;24.20;7.03;;;18.90;99.90;;;;;;4994108;28;20198;-76
2023/10/08 09:45:38;;;;;;;12.27;5.75;;;19.10;99.90;;;;;;4990085;28;20183;-77
2023/10/08 09:48:12;;;;;;;14.68;6.38;;;19.30;99.90;;;;;;4994396;28;20697;-76
2023/10/08 09:50:40;;;;;;;10.95;5.28;;;20.10;99.90;;;;;;4994457;28;20237;-75
2023/10/08 09:53:16;;;;;;;14.07;6.70;;;20.00;99.90;;;;;;4993979;28;20189;-76
2023/10/08 09:55:57;;;;;;;11.75;5.75;;;20.10;99.90;;;;;;4992947;28;20705;-76
2023/10/08 09:58:26;;;;;;;12.23;6.00;;;20.10;99.90;;;;;;4993876;28;20176;-75
2023/10/08 10:00:54;;;;;;;11.65;5.32;;;20.20;99.90;;;;;;4993559;28;20183;-76
2023/10/08 10:03:21;;;;;;;16.65;5.40;;;20.40;99.90;;;;;;4994002;28;20182;-75
2023/10/08 10:05:50;;;;;;;13.00;4.97;;;20.60;99.90;;;;;;4986899;28;20251;-76
2023/10/08 10:08:16;;;;;;;11.80;4.65;;;20.70;99.90;;;;;;4993510;28;20187;-76
2023/10/08 10:10:47;;;;;;;12.82;4.78;;;21.00;99.90;;;;;;4994171;28;20179;-76
2023/10/08 10:13:13;;;;;;;12.85;4.68;;;;;;;;;;4994188;28;20688;-76
2023/10/08 10:15:42;;;;;;;7.70;4.10;;;21.10;99.90;;;;;;4993727;28;20690;-77
2023/10/08 10:18:25;;;;;;;9.68;4.20;;;21.10;99.90;;;;;;4983650;28;20179;-76
2023/10/08 10:21:00;;;;;;;10.25;3.97;;;21.30;99.90;;;;;;4956106;28;20198;-76
2023/10/08 10:23:42;;;;;;;13.93;4.60;;;21.40;99.90;;;;;;4973977;28;20209;-76
2023/10/08 10:26:28;;;;;;;11.80;3.72;;;21.30;99.90;;;;;;4976902;28;20183;-76
2023/10/08 10:29:09;;;;;;;12.82;4.35;;;;;;;;;;4991097;28;20262;-75
2023/10/08 10:31:38;;;;;;;9.57;4.25;;;21.40;99.90;;;;;;4976114;28;20183;-75
2023/10/08 10:34:12;;;;;;;9.93;4.10;;;21.60;99.90;;;;;;4993675;28;20233;-76
2023/10/08 10:36:40;;;;;;;9.27;3.75;;;21.50;99.90;;;;;;4975980;28;20179;-75
2023/10/08 10:39:16;;;;;;;8.35;3.78;;;21.90;99.90;;;;;;4993013;28;20191;-76
2023/10/08 10:41:44;;;;;;;8.00;4.20;;;22.60;99.90;;;;;;4993159;28;20171;-75
2023/10/08 10:44:10;;;;;;;9.68;3.08;;;;;;;;;;4993331;28;20539;-75
2023/10/08 10:46:41;;;;;;;5.72;3.08;;;23.10;99.90;;;;;;4992394;28;20593;-76
2023/10/08 10:49:52;;;;;;;7.82;3.63;;;23.60;99.90;;;;;;4993214;28;20207;-75
2023/10/08 10:51:57;;;;;;;8.15;3.08;;;23.40;1.00;;;;;;4984355;28;20187;-76
2023/10/08 10:54:26;;;;;;;8.32;2.80;;;23.30;1.00;;;;;;4992559;28;20254;-75
2023/10/08 10:57:07;;;;;;;5.63;2.75;;;23.60;1.00;;;;;;4993353;28;20183;-76
2023/10/08 10:59:39;;;;;;;8.32;3.45;;;;;;;;;;4990809;28;20186;-76
2023/10/08 11:02:20;;;;;;;6.22;2.40;;;25.00;99.90;;;;;;4991522;28;20190;-75
2023/10/08 11:04:47;;;;;;;5.18;2.58;;;26.30;99.90;;;;;;4991264;28;20297;-75
2023/10/08 11:07:17;;;;;;;6.25;2.40;;;26.10;1.00;;;;;;4984919;28;20695;-75
2023/10/08 11:09:44;;;;;;;6.80;2.90;;;26.40;99.90;;;;;;4992688;28;20214;-75
2023/10/08 11:12:12;;;;;;;6.97;2.63;;;27.10;1.00;;;;;;4992591;28;20170;-75
2023/10/08 11:14:41;;;;;;;4.53;2.53;;;27.30;1.00;;;;;;4992401;28;20198;-75
2023/10/08 11:17:12;;;;;;;8.98;2.60;;;29.00;99.90;;;;;;4992650;28;20206;-75
2023/10/08 11:19:38;;;;;;;8.00;3.05;;;28.50;1.00;;;;;;4992667;28;20182;-75
2023/10/08 11:22:05;;;;;;;6.65;2.70;;;28.70;99.90;;;;;;4992614;28;20171;-76
2023/10/08 11:24:33;;;;;;;5.20;2.75;;;28.20;1.00;;;;;;4992636;28;20178;-75
2023/10/08 11:27:15;;;;;;;14.52;3.35;;;28.50;99.90;;;;;;4992552;28;20254;-75
2023/10/08 11:29:46;;;;;;;5.60;2.50;;;28.10;26.40;;;;;;4992231;28;20268;-76
2023/10/08 11:32:13;;;;;;;9.82;2.78;;;28.70;1.00;;;;;;4992194;28;20171;-76
2023/10/08 11:34:39;;;;;;;6.80;2.75;;;29.10;1.00;;;;;;4992537;28;20198;-76
2023/10/08 11:37:19;;;;;;;6.35;2.30;;;29.50;1.00;;;;;;4992494;28;20175;-76
2023/10/08 11:39:49;;;;;;;7.82;3.28;;;30.10;1.00;;;;;;4992258;28;20221;-75
2023/10/08 11:47:44;;;;;;;5.45;2.60;;;29.80;1.00;;;;;;4992475;28;20190;-75
2023/10/08 11:50:10;;;;;;;6.25;2.92;;;31.40;99.90;;;;;;4992212;28;20263;-76
2023/10/08 11:52:41;;;;;;;6.38;2.80;;;31.70;1.00;;;;;;4991967;28;20182;-76
2023/10/08 11:55:18;;;;;;;8.25;3.10;;;32.00;1.00;;;;;;4991884;28;20179;-76
2023/10/08 11:57:45;;;;;;;8.07;3.45;;;32.90;1.00;;;;;;4992075;28;20175;-76
2023/10/08 12:00:18;;;;;;;6.28;2.95;;;32.20;99.90;;;;;;4992111;28;20183;-76
2023/10/08 12:02:48;;;;;;;9.55;3.00;;;32.20;99.90;;;;;;4991988;28;20685;-77
2023/10/08 12:05:20;;;;;;;8.52;2.72;;;;;;;;;;4989504;28;20225;-76
2023/10/08 12:07:51;;;;;;;5.47;2.83;;;32.20;1.00;;;;;;4974347;28;20665;-76
2023/10/08 12:10:23;;;;;;;9.57;3.17;;;32.30;99.90;;;;;;4991791;28;20298;-76
2023/10/08 12:12:52;;;;;;;5.35;2.90;;;32.40;1.00;;;;;;4991840;28;20174;-76
2023/10/08 12:15:22;;;;;;;7.18;2.97;;;32.80;1.00;;;;;;4991752;28;20166;-76
2023/10/08 12:18:13;;;;;;;7.82;3.10;;;33.20;99.90;;;;;;4991729;28;20655;-76
2023/10/08 12:20:39;;;;;;;7.43;3.28;;;;;;;;;;4991739;28;20185;-76
2023/10/08 12:23:05;;;;;;;5.68;2.88;;;33.70;1.00;;;;;;4991629;28;20197;-76
2023/10/08 12:25:34;;;;;;;7.20;2.90;;;33.50;1.00;;;;;;4991576;28;20262;-77
2023/10/08 12:28:06;;;;;;;5.70;2.92;;;33.60;99.90;;;;;;4991682;28;20174;-77
2023/10/08 12:30:41;;;;;;;5.20;3.10;;;33.30;99.90;;;;;;4991968;28;20220;-76
2023/10/08 12:33:07;;;;;;;5.93;3.03;;;33.40;1.00;;;;;;4991843;28;20624;-74
2023/10/08 12:35:33;;;;;;;9.35;3.05;;;33.10;99.90;;;;;;4991637;28;20174;-77
2023/10/08 12:37:59;;;;;;;6.15;2.92;;;;;;;;;;4991548;28;20318;-76
2023/10/08 12:40:33;;;;;;;5.70;2.88;;;;;;;;;;4990025;28;20174;-77
2023/10/08 12:42:59;;;;;;;5.68;2.72;;;32.80;1.00;;;;;;4972215;28;20188;-76
2023/10/08 12:45:27;;;;;;;5.70;2.63;;;;;;;;;;4985413;28;20545;-79
2023/10/08 12:47:54;;;;;;;6.93;2.80;;;;;;;;;;4995654;28;20182;-74
2023/10/08 12:50:29;;;;;;;6.68;3.30;;;33.90;1.00;;;;;;4995488;28;20236;-77
2023/10/08 12:53:00;;;;;;;9.02;3.15;;;33.10;96.40;;;;;;4995254;28;20208;-78
2023/10/08 12:55:26;;;;;;;10.38;3.08;;;33.60;1.00;;;;;;4995097;28;20186;-78
2023/10/08 12:57:55;;;;;;;4.88;2.85;;;33.50;1.00;;;;;;4995614;28;20186;-78
2023/10/08 13:00:25;;;;;;;6.40;2.67;;;33.90;1.00;;;;;;4995287;28;20222;-78
2023/10/08 13:02:54;;;;;;;6.82;2.90;;;33.20;1.00;;;;;;4995361;28;20167;-78
2023/10/08 13:05:27;;;;;;;9.32;3.25;;;34.00;1.00;;;;;;4995068;28;20288;-76
2023/10/08 13:07:54;;;;;;;5.13;3.35;;;33.90;1.00;;;;;;4995114;28;20163;-78
2023/10/08 13:10:21;;;;;;;7.80;2.88;;;34.30;1.00;;;;;;4995027;28;20218;-77
2023/10/08 13:12:47;;;;;;;5.90;3.30;;;;;;;;;;4993953;28;20659;-78
2023/10/08 13:15:13;;;;;;;7.50;2.92;;;33.00;99.90;;;;;;4977543;28;20213;-77
2023/10/08 13:17:42;;;;;;;5.05;2.78;;;32.00;99.90;;;;;;4976965;28;20633;-77
2023/10/08 13:20:11;;;;;;;5.43;2.90;;;31.10;1.00;;;;;;4994935;28;20186;-76
2023/10/08 13:22:38;;;;;;;5.10;2.88;;;30.70;99.90;;;;;;4977767;28;20224;-76
2023/10/08 13:25:04;;;;;;;11.05;3.30;;;31.40;99.90;;;;;;4976225;28;20186;-76
2023/10/08 13:27:31;;;;;;;13.00;3.40;;;31.60;1.00;;;;;;4990431;28;20776;-76
2023/10/08 13:29:58;;;;;;;5.22;2.70;;;;;;;;;;4976915;28;20242;-76
2023/10/08 13:32:24;;;;;;;5.20;2.80;;;;;;;;;;4994050;28;20177;-75
2023/10/08 13:34:50;;;;;;;5.45;3.00;;;;;;;;;;4994316;28;20201;-76
2023/10/08 13:37:16;;;;;;;7.25;2.90;;;;;;;;;;4994840;28;20194;-75
2023/10/08 13:39:43;;;;;;;6.90;2.75;;;;;;;;;;4994763;28;20543;-76
2023/10/08 13:42:08;;;;;;;4.25;2.90;;;32.10;99.90;;;;;;4994967;28;20175;-75
2023/10/08 13:44:35;;;;;;;6.43;3.00;;;;;;;;;;4993699;28;20238;-75
2023/10/08 13:47:05;;;;;;;6.25;2.55;;;;;;;;;;4994829;28;20190;-76
2023/10/08 13:49:32;;;;;;;5.90;2.58;;;;;;;;;;4995035;28;20226;-75
2023/10/08 13:51:58;;;;;;;4.78;2.45;;;31.50;1.00;;;;;;4989904;28;20176;-75
2023/10/08 13:54:32;;;;;;;5.57;2.40;;;;;;;;;;4974802;28;20171;-75
2023/10/08 13:57:01;;;;;;;5.03;2.78;;;32.30;99.90;;;;;;4974794;28;20630;-75
2023/10/08 13:59:30;;;;;;;6.22;2.97;;;;;;;;;;4988157;28;20207;-74
2023/10/08 14:01:57;;;;;;;5.30;2.55;;;;;;;;;;4992949;28;20166;-75